sensor_id;sensor_type;location;lat;lon;timestamp;P1;durP1;ratioP1;P2;durP2;ratioP2
10403;SDS011;5248;47.374;8.486;2023-02-28T00:00:08;5.50;;;5.00;;
10403;SDS011;5248;47.374;8.486;2023-02-28T00:02:37;6.33;;;5.67;;
10403;SDS011;5248;47.374;8.486;2023-02-28T00:05:04;5.93;;;5.33;;
10403;SDS011;5248;47.374;8.486;2023-02-28T00:07:31;5.10;;;4.70;;
10403;SDS011;5248;47.374;8.486;2023-02-28T00:09:57;6.47;;;5.87;;
10403;SDS011;5248;47.374;8.486;2023-02-28T00:12:25;6.93;;;6.33;;
10403;SDS011;5248;47.374;8.486;2023-02-28T00:14:53;6.50;;;5.87;;
10403;SDS011;5248;47.374;8.486;2023-02-28T00:17:20;6.33;;;5.67;;
10403;SDS011;5248;47.374;8.486;2023-02-28T00:19:47;5.97;;;5.37;;
10403;SDS011;5248;47.374;8.486;2023-02-28T00:22:14;6.43;;;5.77;;
10403;SDS011;5248;47.374;8.486;2023-02-28T00:24:40;6.83;;;6.13;;
10403;SDS011;5248;47.374;8.486;2023-02-28T00:27:07;5.77;;;5.27;;
10403;SDS011;5248;47.374;8.486;2023-02-28T00:29:35;6.37;;;5.77;;
10403;SDS011;5248;47.374;8.486;2023-02-28T00:32:03;5.73;;;5.27;;
10403;SDS011;5248;47.374;8.486;2023-02-28T00:34:30;6.20;;;5.60;;
10403;SDS011;5248;47.374;8.486;2023-02-28T00:37:03;6.53;;;5.90;;
10403;SDS011;5248;47.374;8.486;2023-02-28T00:39:33;6.93;;;6.23;;
10403;SDS011;5248;47.374;8.486;2023-02-28T00:42:00;6.67;;;5.97;;
10403;SDS011;5248;47.374;8.486;2023-02-28T00:44:27;7.47;;;6.10;;
10403;SDS011;5248;47.374;8.486;2023-02-28T00:46:54;6.50;;;5.90;;
10403;SDS011;5248;47.374;8.486;2023-02-28T00:49:22;6.13;;;5.60;;
10403;SDS011;5248;47.374;8.486;2023-02-28T00:51:49;6.50;;;5.97;;
10403;SDS011;5248;47.374;8.486;2023-02-28T00:54:16;7.10;;;6.43;;
10403;SDS011;5248;47.374;8.486;2023-02-28T00:56:42;7.70;;;6.67;;
10403;SDS011;5248;47.374;8.486;2023-02-28T00:59:10;6.37;;;5.80;;
10403;SDS011;5248;47.374;8.486;2023-02-28T01:01:37;6.40;;;5.80;;
10403;SDS011;5248;47.374;8.486;2023-02-28T01:04:04;6.97;;;6.37;;
10403;SDS011;5248;47.374;8.486;2023-02-28T01:09:02;8.13;;;6.23;;
10403;SDS011;5248;47.374;8.486;2023-02-28T01:11:29;6.30;;;5.70;;
10403;SDS011;5248;47.374;8.486;2023-02-28T01:13:56;7.33;;;5.90;;
10403;SDS011;5248;47.374;8.486;2023-02-28T01:16:22;6.73;;;6.13;;
10403;SDS011;5248;47.374;8.486;2023-02-28T01:18:49;7.03;;;6.33;;
10403;SDS011;5248;47.374;8.486;2023-02-28T01:21:16;6.27;;;5.67;;
10403;SDS011;5248;47.374;8.486;2023-02-28T01:23:46;7.37;;;6.53;;
10403;SDS011;5248;47.374;8.486;2023-02-28T01:26:14;6.87;;;5.87;;
10403;SDS011;5248;47.374;8.486;2023-02-28T01:28:42;7.30;;;6.60;;
10403;SDS011;5248;47.374;8.486;2023-02-28T01:31:09;6.67;;;6.07;;
10403;SDS011;5248;47.374;8.486;2023-02-28T01:33:36;6.67;;;6.13;;
10403;SDS011;5248;47.374;8.486;2023-02-28T01:36:03;7.40;;;6.70;;
10403;SDS011;5248;47.374;8.486;2023-02-28T01:38:31;7.47;;;6.60;;
10403;SDS011;5248;47.374;8.486;2023-02-28T01:41:01;7.37;;;6.63;;
10403;SDS011;5248;47.374;8.486;2023-02-28T01:43:31;6.83;;;6.27;;
10403;SDS011;5248;47.374;8.486;2023-02-28T01:46:20;7.27;;;6.67;;
10403;SDS011;5248;47.374;8.486;2023-02-28T01:48:48;7.43;;;6.67;;
10403;SDS011;5248;47.374;8.486;2023-02-28T01:51:17;7.47;;;6.37;;
10403;SDS011;5248;47.374;8.486;2023-02-28T01:53:47;7.23;;;6.53;;
10403;SDS011;5248;47.374;8.486;2023-02-28T01:56:17;7.80;;;6.53;;
10403;SDS011;5248;47.374;8.486;2023-02-28T01:58:47;8.07;;;6.90;;
10403;SDS011;5248;47.374;8.486;2023-02-28T02:01:13;7.20;;;6.60;;
10403;SDS011;5248;47.374;8.486;2023-02-28T02:03:46;7.20;;;6.50;;
10403;SDS011;5248;47.374;8.486;2023-02-28T02:06:12;7.17;;;6.53;;
10403;SDS011;5248;47.374;8.486;2023-02-28T02:08:39;7.73;;;7.00;;
10403;SDS011;5248;47.374;8.486;2023-02-28T02:11:07;7.40;;;6.70;;
10403;SDS011;5248;47.374;8.486;2023-02-28T02:13:47;7.43;;;6.83;;
10403;SDS011;5248;47.374;8.486;2023-02-28T02:16:26;7.23;;;6.53;;
10403;SDS011;5248;47.374;8.486;2023-02-28T02:19:02;7.23;;;6.63;;
10403;SDS011;5248;47.374;8.486;2023-02-28T02:21:57;6.90;;;6.30;;
10403;SDS011;5248;47.374;8.486;2023-02-28T02:24:44;8.03;;;7.33;;
10403;SDS011;5248;47.374;8.486;2023-02-28T02:27:17;7.30;;;6.60;;
10403;SDS011;5248;47.374;8.486;2023-02-28T02:29:51;8.13;;;7.03;;
10403;SDS011;5248;47.374;8.486;2023-02-28T02:32:55;8.40;;;6.50;;
10403;SDS011;5248;47.374;8.486;2023-02-28T02:35:36;7.93;;;7.10;;
10403;SDS011;5248;47.374;8.486;2023-02-28T02:38:07;7.13;;;6.53;;
10403;SDS011;5248;47.374;8.486;2023-02-28T02:40:37;6.77;;;6.07;;
10403;SDS011;5248;47.374;8.486;2023-02-28T02:43:09;6.97;;;6.40;;
10403;SDS011;5248;47.374;8.486;2023-02-28T02:45:41;7.43;;;6.73;;
10403;SDS011;5248;47.374;8.486;2023-02-28T02:48:11;7.50;;;6.80;;
10403;SDS011;5248;47.374;8.486;2023-02-28T02:50:42;8.00;;;6.57;;
10403;SDS011;5248;47.374;8.486;2023-02-28T02:53:10;7.67;;;6.97;;
10403;SDS011;5248;47.374;8.486;2023-02-28T02:55:41;8.00;;;7.30;;
10403;SDS011;5248;47.374;8.486;2023-02-28T02:58:10;9.00;;;7.37;;
10403;SDS011;5248;47.374;8.486;2023-02-28T03:00:40;7.03;;;6.43;;
10403;SDS011;5248;47.374;8.486;2023-02-28T03:03:08;7.43;;;6.70;;
10403;SDS011;5248;47.374;8.486;2023-02-28T03:05:39;8.03;;;7.10;;
10403;SDS011;5248;47.374;8.486;2023-02-28T03:08:10;8.00;;;7.17;;
10403;SDS011;5248;47.374;8.486;2023-02-28T03:10:37;7.77;;;6.97;;
10403;SDS011;5248;47.374;8.486;2023-02-28T03:16:14;7.43;;;6.73;;
10403;SDS011;5248;47.374;8.486;2023-02-28T03:18:51;6.87;;;6.23;;
10403;SDS011;5248;47.374;8.486;2023-02-28T03:21:22;7.50;;;6.80;;
10403;SDS011;5248;47.374;8.486;2023-02-28T03:23:53;7.50;;;6.90;;
10403;SDS011;5248;47.374;8.486;2023-02-28T03:26:23;7.63;;;6.93;;
10403;SDS011;5248;47.374;8.486;2023-02-28T03:28:53;7.53;;;6.50;;
10403;SDS011;5248;47.374;8.486;2023-02-28T03:31:27;7.20;;;6.50;;
10403;SDS011;5248;47.374;8.486;2023-02-28T03:33:58;7.87;;;7.17;;
10403;SDS011;5248;47.374;8.486;2023-02-28T03:36:29;7.43;;;6.67;;
10403;SDS011;5248;47.374;8.486;2023-02-28T03:38:57;7.90;;;7.10;;
10403;SDS011;5248;47.374;8.486;2023-02-28T03:41:29;7.20;;;6.60;;
10403;SDS011;5248;47.374;8.486;2023-02-28T03:43:58;8.63;;;6.83;;
10403;SDS011;5248;47.374;8.486;2023-02-28T03:46:28;8.00;;;7.17;;
10403;SDS011;5248;47.374;8.486;2023-02-28T03:48:58;8.93;;;6.80;;
10403;SDS011;5248;47.374;8.486;2023-02-28T03:51:29;7.13;;;6.53;;
10403;SDS011;5248;47.374;8.486;2023-02-28T03:53:58;7.40;;;6.70;;
10403;SDS011;5248;47.374;8.486;2023-02-28T03:56:30;7.67;;;6.93;;
10403;SDS011;5248;47.374;8.486;2023-02-28T03:59:00;7.40;;;6.47;;
10403;SDS011;5248;47.374;8.486;2023-02-28T04:01:30;7.00;;;6.40;;
10403;SDS011;5248;47.374;8.486;2023-02-28T04:03:59;7.30;;;6.53;;
10403;SDS011;5248;47.374;8.486;2023-02-28T04:06:25;6.93;;;6.33;;
10403;SDS011;5248;47.374;8.486;2023-02-28T04:08:53;7.53;;;6.83;;
10403;SDS011;5248;47.374;8.486;2023-02-28T04:11:22;7.17;;;6.47;;
10403;SDS011;5248;47.374;8.486;2023-02-28T04:13:49;7.47;;;6.73;;
10403;SDS011;5248;47.374;8.486;2023-02-28T04:16:15;7.33;;;6.60;;
10403;SDS011;5248;47.374;8.486;2023-02-28T04:18:42;7.97;;;6.67;;
10403;SDS011;5248;47.374;8.486;2023-02-28T04:21:11;8.10;;;7.40;;
10403;SDS011;5248;47.374;8.486;2023-02-28T04:23:38;7.00;;;6.40;;
10403;SDS011;5248;47.374;8.486;2023-02-28T04:26:08;7.00;;;6.13;;
10403;SDS011;5248;47.374;8.486;2023-02-28T04:28:37;7.97;;;7.20;;
10403;SDS011;5248;47.374;8.486;2023-02-28T04:31:05;7.43;;;6.77;;
10403;SDS011;5248;47.374;8.486;2023-02-28T04:33:32;7.60;;;6.90;;
10403;SDS011;5248;47.374;8.486;2023-02-28T04:35:59;7.87;;;6.77;;
10403;SDS011;5248;47.374;8.486;2023-02-28T04:38:26;6.90;;;6.30;;
10403;SDS011;5248;47.374;8.486;2023-02-28T04:40:52;6.93;;;6.33;;
10403;SDS011;5248;47.374;8.486;2023-02-28T04:43:22;7.90;;;7.20;;
10403;SDS011;5248;47.374;8.486;2023-02-28T04:45:49;6.80;;;6.13;;
10403;SDS011;5248;47.374;8.486;2023-02-28T04:48:15;7.03;;;6.33;;
10403;SDS011;5248;47.374;8.486;2023-02-28T04:50:42;7.50;;;6.90;;
10403;SDS011;5248;47.374;8.486;2023-02-28T04:53:08;7.33;;;6.53;;
10403;SDS011;5248;47.374;8.486;2023-02-28T04:55:35;7.63;;;6.87;;
10403;SDS011;5248;47.374;8.486;2023-02-28T04:58:05;7.40;;;6.67;;
10403;SDS011;5248;47.374;8.486;2023-02-28T05:00:34;7.20;;;6.60;;
10403;SDS011;5248;47.374;8.486;2023-02-28T05:03:01;7.33;;;6.63;;
10403;SDS011;5248;47.374;8.486;2023-02-28T05:05:27;7.17;;;6.57;;
10403;SDS011;5248;47.374;8.486;2023-02-28T05:07:54;7.07;;;6.37;;
10403;SDS011;5248;47.374;8.486;2023-02-28T05:10:21;7.47;;;6.77;;
10403;SDS011;5248;47.374;8.486;2023-02-28T05:12:48;7.50;;;6.80;;
10403;SDS011;5248;47.374;8.486;2023-02-28T05:15:15;7.97;;;6.57;;
10403;SDS011;5248;47.374;8.486;2023-02-28T05:17:44;7.63;;;6.67;;
10403;SDS011;5248;47.374;8.486;2023-02-28T05:20:10;7.20;;;6.60;;
10403;SDS011;5248;47.374;8.486;2023-02-28T05:22:39;6.70;;;6.10;;
10403;SDS011;5248;47.374;8.486;2023-02-28T05:25:06;7.33;;;6.63;;
10403;SDS011;5248;47.374;8.486;2023-02-28T05:27:35;7.23;;;6.53;;
10403;SDS011;5248;47.374;8.486;2023-02-28T05:30:01;6.97;;;6.40;;
10403;SDS011;5248;47.374;8.486;2023-02-28T05:32:29;7.33;;;6.60;;
10403;SDS011;5248;47.374;8.486;2023-02-28T05:34:57;7.87;;;6.53;;
10403;SDS011;5248;47.374;8.486;2023-02-28T05:37:24;7.53;;;6.73;;
10403;SDS011;5248;47.374;8.486;2023-02-28T05:39:50;7.37;;;6.67;;
10403;SDS011;5248;47.374;8.486;2023-02-28T05:42:17;7.23;;;6.47;;
10403;SDS011;5248;47.374;8.486;2023-02-28T05:44:43;6.93;;;6.43;;
10403;SDS011;5248;47.374;8.486;2023-02-28T05:47:09;7.10;;;6.43;;
10403;SDS011;5248;47.374;8.486;2023-02-28T05:49:37;6.97;;;6.37;;
10403;SDS011;5248;47.374;8.486;2023-02-28T05:52:06;6.97;;;6.30;;
10403;SDS011;5248;47.374;8.486;2023-02-28T05:54:32;7.87;;;7.17;;
10403;SDS011;5248;47.374;8.486;2023-02-28T05:56:58;8.07;;;6.50;;
10403;SDS011;5248;47.374;8.486;2023-02-28T05:59:25;7.40;;;6.70;;
10403;SDS011;5248;47.374;8.486;2023-02-28T06:01:51;8.17;;;7.47;;
10403;SDS011;5248;47.374;8.486;2023-02-28T06:04:19;7.80;;;7.10;;
10403;SDS011;5248;47.374;8.486;2023-02-28T06:06:46;6.80;;;6.20;;
10403;SDS011;5248;47.374;8.486;2023-02-28T06:09:17;8.70;;;6.80;;
10403;SDS011;5248;47.374;8.486;2023-02-28T06:11:45;7.40;;;6.70;;
10403;SDS011;5248;47.374;8.486;2023-02-28T06:14:12;8.57;;;7.07;;
10403;SDS011;5248;47.374;8.486;2023-02-28T06:16:40;7.47;;;6.77;;
10403;SDS011;5248;47.374;8.486;2023-02-28T06:19:08;7.47;;;6.80;;
10403;SDS011;5248;47.374;8.486;2023-02-28T06:21:35;7.60;;;6.80;;
10403;SDS011;5248;47.374;8.486;2023-02-28T06:24:02;7.77;;;7.17;;
10403;SDS011;5248;47.374;8.486;2023-02-28T06:26:31;7.67;;;6.83;;
10403;SDS011;5248;47.374;8.486;2023-02-28T06:28:58;7.53;;;6.70;;
10403;SDS011;5248;47.374;8.486;2023-02-28T06:31:25;7.50;;;6.80;;
10403;SDS011;5248;47.374;8.486;2023-02-28T06:33:54;7.50;;;6.80;;
10403;SDS011;5248;47.374;8.486;2023-02-28T06:36:21;8.50;;;7.20;;
10403;SDS011;5248;47.374;8.486;2023-02-28T06:38:47;7.87;;;7.17;;
10403;SDS011;5248;47.374;8.486;2023-02-28T06:41:19;6.80;;;6.23;;
10403;SDS011;5248;47.374;8.486;2023-02-28T06:43:47;7.60;;;6.90;;
10403;SDS011;5248;47.374;8.486;2023-02-28T06:46:17;7.77;;;7.07;;
10403;SDS011;5248;47.374;8.486;2023-02-28T06:48:44;7.60;;;6.87;;
10403;SDS011;5248;47.374;8.486;2023-02-28T06:51:11;7.40;;;6.70;;
10403;SDS011;5248;47.374;8.486;2023-02-28T06:53:39;7.93;;;7.27;;
10403;SDS011;5248;47.374;8.486;2023-02-28T06:56:06;7.97;;;6.97;;
10403;SDS011;5248;47.374;8.486;2023-02-28T06:58:34;8.00;;;7.30;;
10403;SDS011;5248;47.374;8.486;2023-02-28T07:01:02;8.20;;;6.83;;
10403;SDS011;5248;47.374;8.486;2023-02-28T07:03:29;8.70;;;6.77;;
10403;SDS011;5248;47.374;8.486;2023-02-28T07:05:55;7.70;;;7.00;;
10403;SDS011;5248;47.374;8.486;2023-02-28T07:08:22;7.43;;;6.70;;
10403;SDS011;5248;47.374;8.486;2023-02-28T07:10:51;12.80;;;7.57;;
10403;SDS011;5248;47.374;8.486;2023-02-28T07:13:19;7.57;;;6.87;;
10403;SDS011;5248;47.374;8.486;2023-02-28T07:15:52;8.50;;;7.70;;
10403;SDS011;5248;47.374;8.486;2023-02-28T07:18:21;9.53;;;7.33;;
10403;SDS011;5248;47.374;8.486;2023-02-28T07:20:49;8.07;;;6.90;;
10403;SDS011;5248;47.374;8.486;2023-02-28T07:23:15;8.00;;;7.17;;
10403;SDS011;5248;47.374;8.486;2023-02-28T07:25:43;7.33;;;6.70;;
10403;SDS011;5248;47.374;8.486;2023-02-28T07:28:11;8.40;;;7.63;;
10403;SDS011;5248;47.374;8.486;2023-02-28T07:30:37;7.93;;;7.23;;
10403;SDS011;5248;47.374;8.486;2023-02-28T07:33:04;7.67;;;6.97;;
10403;SDS011;5248;47.374;8.486;2023-02-28T07:35:32;7.80;;;7.10;;
10403;SDS011;5248;47.374;8.486;2023-02-28T07:37:59;7.80;;;7.10;;
10403;SDS011;5248;47.374;8.486;2023-02-28T07:40:28;8.00;;;7.23;;
10403;SDS011;5248;47.374;8.486;2023-02-28T07:42:54;8.20;;;7.40;;
10403;SDS011;5248;47.374;8.486;2023-02-28T07:45:20;8.80;;;7.90;;
10403;SDS011;5248;47.374;8.486;2023-02-28T07:47:47;7.90;;;7.07;;
10403;SDS011;5248;47.374;8.486;2023-02-28T07:50:15;7.90;;;7.20;;
10403;SDS011;5248;47.374;8.486;2023-02-28T07:52:43;8.13;;;7.43;;
10403;SDS011;5248;47.374;8.486;2023-02-28T07:55:10;7.30;;;6.70;;
10403;SDS011;5248;47.374;8.486;2023-02-28T07:57:36;8.00;;;7.30;;
10403;SDS011;5248;47.374;8.486;2023-02-28T08:00:03;7.03;;;6.33;;
10403;SDS011;5248;47.374;8.486;2023-02-28T08:02:30;8.43;;;7.73;;
10403;SDS011;5248;47.374;8.486;2023-02-28T08:04:59;8.60;;;7.53;;
10403;SDS011;5248;47.374;8.486;2023-02-28T08:07:25;8.07;;;7.37;;
10403;SDS011;5248;47.374;8.486;2023-02-28T08:09:54;9.10;;;7.00;;
10403;SDS011;5248;47.374;8.486;2023-02-28T08:12:20;10.27;;;7.67;;
10403;SDS011;5248;47.374;8.486;2023-02-28T08:14:46;8.17;;;7.17;;
10403;SDS011;5248;47.374;8.486;2023-02-28T08:17:13;8.03;;;7.23;;
10403;SDS011;5248;47.374;8.486;2023-02-28T08:19:39;8.60;;;7.80;;
10403;SDS011;5248;47.374;8.486;2023-02-28T08:22:07;8.57;;;7.67;;
10403;SDS011;5248;47.374;8.486;2023-02-28T08:24:34;7.83;;;7.10;;
10403;SDS011;5248;47.374;8.486;2023-02-28T08:27:02;8.23;;;7.40;;
10403;SDS011;5248;47.374;8.486;2023-02-28T08:29:28;8.63;;;7.87;;
10403;SDS011;5248;47.374;8.486;2023-02-28T08:31:55;8.77;;;7.87;;
10403;SDS011;5248;47.374;8.486;2023-02-28T08:34:23;8.50;;;7.57;;
10403;SDS011;5248;47.374;8.486;2023-02-28T08:36:52;8.83;;;7.97;;
10403;SDS011;5248;47.374;8.486;2023-02-28T08:39:19;8.33;;;7.53;;
10403;SDS011;5248;47.374;8.486;2023-02-28T08:41:45;8.00;;;7.30;;
10403;SDS011;5248;47.374;8.486;2023-02-28T08:44:13;8.77;;;7.90;;
10403;SDS011;5248;47.374;8.486;2023-02-28T08:46:40;8.70;;;7.90;;
10403;SDS011;5248;47.374;8.486;2023-02-28T08:49:06;7.80;;;7.03;;
10403;SDS011;5248;47.374;8.486;2023-02-28T08:51:34;10.10;;;8.00;;
10403;SDS011;5248;47.374;8.486;2023-02-28T08:54:02;8.30;;;7.57;;
10403;SDS011;5248;47.374;8.486;2023-02-28T08:56:29;9.47;;;7.90;;
10403;SDS011;5248;47.374;8.486;2023-02-28T08:58:56;8.57;;;7.80;;
10403;SDS011;5248;47.374;8.486;2023-02-28T09:01:25;8.83;;;7.73;;
10403;SDS011;5248;47.374;8.486;2023-02-28T09:03:56;8.47;;;7.67;;
10403;SDS011;5248;47.374;8.486;2023-02-28T09:06:24;9.40;;;8.20;;
10403;SDS011;5248;47.374;8.486;2023-02-28T09:08:52;8.27;;;7.57;;
10403;SDS011;5248;47.374;8.486;2023-02-28T09:11:20;9.00;;;8.07;;
10403;SDS011;5248;47.374;8.486;2023-02-28T09:13:46;10.33;;;7.93;;
10403;SDS011;5248;47.374;8.486;2023-02-28T09:16:14;8.50;;;7.70;;
10403;SDS011;5248;47.374;8.486;2023-02-28T09:18:43;8.70;;;7.80;;
10403;SDS011;5248;47.374;8.486;2023-02-28T09:21:10;8.90;;;8.00;;
10403;SDS011;5248;47.374;8.486;2023-02-28T09:23:39;10.07;;;8.37;;
10403;SDS011;5248;47.374;8.486;2023-02-28T09:26:06;9.40;;;8.50;;
10403;SDS011;5248;47.374;8.486;2023-02-28T09:28:33;8.77;;;7.87;;
10403;SDS011;5248;47.374;8.486;2023-02-28T09:31:00;9.23;;;8.27;;
10403;SDS011;5248;47.374;8.486;2023-02-28T09:33:27;8.60;;;7.70;;
10403;SDS011;5248;47.374;8.486;2023-02-28T09:35:59;9.17;;;8.27;;
10403;SDS011;5248;47.374;8.486;2023-02-28T09:38:26;11.83;;;8.00;;
10403;SDS011;5248;47.374;8.486;2023-02-28T09:40:54;8.87;;;8.10;;
10403;SDS011;5248;47.374;8.486;2023-02-28T09:43:23;9.00;;;8.10;;
10403;SDS011;5248;47.374;8.486;2023-02-28T09:45:52;10.30;;;8.80;;
10403;SDS011;5248;47.374;8.486;2023-02-28T09:48:25;9.77;;;7.93;;
10403;SDS011;5248;47.374;8.486;2023-02-28T09:50:55;8.50;;;7.70;;
10403;SDS011;5248;47.374;8.486;2023-02-28T09:53:27;10.57;;;7.83;;
10403;SDS011;5248;47.374;8.486;2023-02-28T09:56:01;9.00;;;8.10;;
10403;SDS011;5248;47.374;8.486;2023-02-28T09:58:31;8.87;;;7.97;;
10403;SDS011;5248;47.374;8.486;2023-02-28T10:01:02;9.07;;;8.17;;
10403;SDS011;5248;47.374;8.486;2023-02-28T10:03:34;9.77;;;8.77;;
10403;SDS011;5248;47.374;8.486;2023-02-28T10:06:04;9.23;;;8.33;;
10403;SDS011;5248;47.374;8.486;2023-02-28T10:08:36;9.20;;;8.23;;
10403;SDS011;5248;47.374;8.486;2023-02-28T10:11:07;8.60;;;7.80;;
10403;SDS011;5248;47.374;8.486;2023-02-28T10:13:37;8.17;;;7.37;;
10403;SDS011;5248;47.374;8.486;2023-02-28T10:16:10;9.63;;;8.47;;
10403;SDS011;5248;47.374;8.486;2023-02-28T10:18:40;8.83;;;7.93;;
10403;SDS011;5248;47.374;8.486;2023-02-28T10:21:11;8.93;;;7.70;;
10403;SDS011;5248;47.374;8.486;2023-02-28T10:23:43;9.30;;;8.40;;
10403;SDS011;5248;47.374;8.486;2023-02-28T10:26:13;8.67;;;7.87;;
10403;SDS011;5248;47.374;8.486;2023-02-28T10:28:41;8.97;;;8.17;;
10403;SDS011;5248;47.374;8.486;2023-02-28T10:31:08;9.03;;;8.13;;
10403;SDS011;5248;47.374;8.486;2023-02-28T10:33:41;8.73;;;7.93;;
10403;SDS011;5248;47.374;8.486;2023-02-28T10:36:08;9.83;;;8.93;;
10403;SDS011;5248;47.374;8.486;2023-02-28T10:38:41;8.73;;;7.83;;
10403;SDS011;5248;47.374;8.486;2023-02-28T10:41:09;10.33;;;8.83;;
10403;SDS011;5248;47.374;8.486;2023-02-28T10:43:36;9.70;;;8.70;;
10403;SDS011;5248;47.374;8.486;2023-02-28T10:46:04;9.20;;;8.40;;
10403;SDS011;5248;47.374;8.486;2023-02-28T10:48:36;8.47;;;7.73;;
10403;SDS011;5248;47.374;8.486;2023-02-28T10:51:05;9.53;;;8.63;;
10403;SDS011;5248;47.374;8.486;2023-02-28T10:53:34;9.33;;;8.43;;
10403;SDS011;5248;47.374;8.486;2023-02-28T10:56:04;10.17;;;8.40;;
10403;SDS011;5248;47.374;8.486;2023-02-28T10:58:42;9.70;;;8.70;;
10403;SDS011;5248;47.374;8.486;2023-02-28T11:01:15;9.13;;;8.33;;
10403;SDS011;5248;47.374;8.486;2023-02-28T11:03:42;10.70;;;8.93;;
10403;SDS011;5248;47.374;8.486;2023-02-28T11:06:13;9.37;;;8.50;;
10403;SDS011;5248;47.374;8.486;2023-02-28T11:08:48;9.50;;;8.43;;
10403;SDS011;5248;47.374;8.486;2023-02-28T11:11:18;9.10;;;8.20;;
10403;SDS011;5248;47.374;8.486;2023-02-28T11:13:46;13.10;;;8.50;;
10403;SDS011;5248;47.374;8.486;2023-02-28T11:16:14;9.93;;;8.97;;
10403;SDS011;5248;47.374;8.486;2023-02-28T11:18:42;9.50;;;8.47;;
10403;SDS011;5248;47.374;8.486;2023-02-28T11:21:15;9.50;;;8.60;;
10403;SDS011;5248;47.374;8.486;2023-02-28T11:23:45;9.70;;;8.20;;
10403;SDS011;5248;47.374;8.486;2023-02-28T11:26:13;9.10;;;8.20;;
10403;SDS011;5248;47.374;8.486;2023-02-28T11:28:40;8.90;;;8.10;;
10403;SDS011;5248;47.374;8.486;2023-02-28T11:31:17;10.00;;;9.00;;
10403;SDS011;5248;47.374;8.486;2023-02-28T11:33:47;9.27;;;8.37;;
10403;SDS011;5248;47.374;8.486;2023-02-28T11:36:17;8.93;;;8.03;;
10403;SDS011;5248;47.374;8.486;2023-02-28T11:38:45;9.03;;;8.20;;
10403;SDS011;5248;47.374;8.486;2023-02-28T11:41:18;9.90;;;8.00;;
10403;SDS011;5248;47.374;8.486;2023-02-28T11:43:55;9.30;;;8.33;;
10403;SDS011;5248;47.374;8.486;2023-02-28T11:46:30;9.60;;;8.70;;
10403;SDS011;5248;47.374;8.486;2023-02-28T11:49:02;9.37;;;8.37;;
10403;SDS011;5248;47.374;8.486;2023-02-28T11:51:34;10.47;;;8.00;;
10403;SDS011;5248;47.374;8.486;2023-02-28T11:54:08;8.27;;;7.47;;
10403;SDS011;5248;47.374;8.486;2023-02-28T11:56:51;9.47;;;8.57;;
10403;SDS011;5248;47.374;8.486;2023-02-28T11:59:27;9.30;;;8.40;;
10403;SDS011;5248;47.374;8.486;2023-02-28T12:02:09;10.07;;;8.73;;
10403;SDS011;5248;47.374;8.486;2023-02-28T12:04:47;9.87;;;8.97;;
10403;SDS011;5248;47.374;8.486;2023-02-28T12:07:21;9.40;;;8.50;;
10403;SDS011;5248;47.374;8.486;2023-02-28T12:09:57;9.17;;;8.27;;
10403;SDS011;5248;47.374;8.486;2023-02-28T12:12:37;10.10;;;9.10;;
10403;SDS011;5248;47.374;8.486;2023-02-28T12:15:15;11.23;;;8.37;;
10403;SDS011;5248;47.374;8.486;2023-02-28T12:17:49;10.73;;;9.20;;
10403;SDS011;5248;47.374;8.486;2023-02-28T12:20:23;10.30;;;9.20;;
10403;SDS011;5248;47.374;8.486;2023-02-28T12:22:54;10.97;;;9.10;;
10403;SDS011;5248;47.374;8.486;2023-02-28T12:25:38;9.97;;;8.87;;
10403;SDS011;5248;47.374;8.486;2023-02-28T12:28:15;9.30;;;8.50;;
10403;SDS011;5248;47.374;8.486;2023-02-28T12:30:47;9.47;;;8.57;;
10403;SDS011;5248;47.374;8.486;2023-02-28T12:33:16;9.97;;;8.90;;
10403;SDS011;5248;47.374;8.486;2023-02-28T12:35:48;11.27;;;8.63;;
10403;SDS011;5248;47.374;8.486;2023-02-28T12:38:17;9.77;;;8.87;;
10403;SDS011;5248;47.374;8.486;2023-02-28T12:40:47;9.87;;;8.97;;
10403;SDS011;5248;47.374;8.486;2023-02-28T12:43:18;9.83;;;8.93;;
10403;SDS011;5248;47.374;8.486;2023-02-28T12:45:47;9.93;;;8.90;;
10403;SDS011;5248;47.374;8.486;2023-02-28T12:48:18;12.17;;;9.47;;
10403;SDS011;5248;47.374;8.486;2023-02-28T12:50:47;9.90;;;8.87;;
10403;SDS011;5248;47.374;8.486;2023-02-28T12:53:15;10.50;;;9.47;;
10403;SDS011;5248;47.374;8.486;2023-02-28T12:55:48;9.60;;;8.70;;
10403;SDS011;5248;47.374;8.486;2023-02-28T12:58:20;9.50;;;8.50;;
10403;SDS011;5248;47.374;8.486;2023-02-28T13:00:58;10.90;;;9.37;;
10403;SDS011;5248;47.374;8.486;2023-02-28T13:06:55;10.10;;;9.10;;
10403;SDS011;5248;47.374;8.486;2023-02-28T13:09:31;9.83;;;8.77;;
10403;SDS011;5248;47.374;8.486;2023-02-28T13:11:59;10.40;;;8.77;;
10403;SDS011;5248;47.374;8.486;2023-02-28T13:14:27;11.13;;;9.43;;
10403;SDS011;5248;47.374;8.486;2023-02-28T13:16:58;10.87;;;9.77;;
10403;SDS011;5248;47.374;8.486;2023-02-28T13:19:27;10.23;;;9.23;;
10403;SDS011;5248;47.374;8.486;2023-02-28T13:21:55;10.47;;;9.47;;
10403;SDS011;5248;47.374;8.486;2023-02-28T13:33:20;10.33;;;8.93;;
10403;SDS011;5248;47.374;8.486;2023-02-28T13:35:50;10.33;;;9.20;;
10403;SDS011;5248;47.374;8.486;2023-02-28T13:38:41;12.70;;;9.93;;
10403;SDS011;5248;47.374;8.486;2023-02-28T13:44:23;10.30;;;9.20;;
10403;SDS011;5248;47.374;8.486;2023-02-28T13:49:56;11.60;;;8.80;;
10403;SDS011;5248;47.374;8.486;2023-02-28T13:52:43;10.77;;;9.33;;
10403;SDS011;5248;47.374;8.486;2023-02-28T13:55:22;12.43;;;9.53;;
10403;SDS011;5248;47.374;8.486;2023-02-28T13:58:04;9.87;;;8.87;;
10403;SDS011;5248;47.374;8.486;2023-02-28T14:00:42;10.53;;;9.53;;
10403;SDS011;5248;47.374;8.486;2023-02-28T14:03:26;10.87;;;9.70;;
10403;SDS011;5248;47.374;8.486;2023-02-28T14:06:09;11.20;;;8.80;;
10403;SDS011;5248;47.374;8.486;2023-02-28T14:08:44;10.80;;;9.70;;
10403;SDS011;5248;47.374;8.486;2023-02-28T14:11:23;10.40;;;9.30;;
10403;SDS011;5248;47.374;8.486;2023-02-28T14:13:53;10.97;;;9.40;;
10403;SDS011;5248;47.374;8.486;2023-02-28T14:16:20;9.80;;;8.80;;
10403;SDS011;5248;47.374;8.486;2023-02-28T14:18:49;10.17;;;9.17;;
10403;SDS011;5248;47.374;8.486;2023-02-28T14:21:21;10.50;;;9.47;;
10403;SDS011;5248;47.374;8.486;2023-02-28T14:24:08;10.93;;;9.17;;
10403;SDS011;5248;47.374;8.486;2023-02-28T14:29:59;9.93;;;8.93;;
10403;SDS011;5248;47.374;8.486;2023-02-28T14:32:41;12.63;;;9.47;;
10403;SDS011;5248;47.374;8.486;2023-02-28T14:35:15;10.53;;;9.47;;
10403;SDS011;5248;47.374;8.486;2023-02-28T14:37:56;10.63;;;9.53;;
10403;SDS011;5248;47.374;8.486;2023-02-28T14:40:25;10.43;;;9.43;;
10403;SDS011;5248;47.374;8.486;2023-02-28T14:42:54;10.50;;;9.40;;
10403;SDS011;5248;47.374;8.486;2023-02-28T14:45:22;10.50;;;9.43;;
10403;SDS011;5248;47.374;8.486;2023-02-28T14:47:50;11.10;;;9.97;;
10403;SDS011;5248;47.374;8.486;2023-02-28T14:50:18;10.10;;;9.20;;
10403;SDS011;5248;47.374;8.486;2023-02-28T14:52:45;13.57;;;10.77;;
10403;SDS011;5248;47.374;8.486;2023-02-28T14:55:14;10.60;;;9.50;;
10403;SDS011;5248;47.374;8.486;2023-02-28T14:57:50;10.90;;;9.80;;
10403;SDS011;5248;47.374;8.486;2023-02-28T15:00:22;11.40;;;10.30;;
10403;SDS011;5248;47.374;8.486;2023-02-28T15:02:51;11.57;;;10.43;;
10403;SDS011;5248;47.374;8.486;2023-02-28T15:05:21;10.83;;;9.77;;
10403;SDS011;5248;47.374;8.486;2023-02-28T15:08:00;12.40;;;10.57;;
10403;SDS011;5248;47.374;8.486;2023-02-28T15:10:29;12.17;;;10.97;;
10403;SDS011;5248;47.374;8.486;2023-02-28T15:12:57;11.43;;;10.23;;
10403;SDS011;5248;47.374;8.486;2023-02-28T15:15:26;12.23;;;10.93;;
10403;SDS011;5248;47.374;8.486;2023-02-28T15:17:55;11.90;;;10.70;;
10403;SDS011;5248;47.374;8.486;2023-02-28T15:20:23;12.87;;;11.57;;
10403;SDS011;5248;47.374;8.486;2023-02-28T15:22:50;12.67;;;10.80;;
10403;SDS011;5248;47.374;8.486;2023-02-28T15:25:20;11.97;;;10.80;;
10403;SDS011;5248;47.374;8.486;2023-02-28T15:27:49;12.60;;;11.20;;
10403;SDS011;5248;47.374;8.486;2023-02-28T15:30:20;12.90;;;11.70;;
10403;SDS011;5248;47.374;8.486;2023-02-28T15:33:02;12.07;;;10.87;;
10403;SDS011;5248;47.374;8.486;2023-02-28T15:35:31;12.57;;;10.87;;
10403;SDS011;5248;47.374;8.486;2023-02-28T15:38:00;12.77;;;11.43;;
10403;SDS011;5248;47.374;8.486;2023-02-28T15:40:31;12.93;;;11.63;;